»·PEaware :: QXE2507 KBOI-KPDX

QXE2507 :: KBOI-KPDX

FLIGHT INFORMATION

Flight Status: Arrived
Operator:
Horizon Air
More flights by this operator :: More flights under this callsign
Pilot: Anonymous 16594 (16594)
Aircraft: DEHAVILLAND DASH 8 400
(DH8D)
More flights by this aircraft type
Origin: KBOI Boise Air Terminal/Gowen
United States
Destination: KPDX Portland Intl
United States
More flights between these airports :: More routes between these airports
Route: BOI J15 TIMEE
File this flight plan on PilotEdge
Remarks:
Altitude:
(Current/Filed)
24,000ft
Speed:
(Current/Filed)
316kts
Departed: 25-Aug-18 06:43 PM
Arrived: 25-Aug-18 07:57 PM
Distance/Time
Traveled:
298nm/1:13
Distance/Time
To Go:
Arrived

Flight Plot

Page will automatically refresh every two minutes.

Flight plan parsing failed; only flown route is shown


Map Options




Map Legend


Flown Route
Filed Route
Departure Airport
Arrival Airport
Navaid (VOR, NDB)
Fix

Horizontal Profiles

Position Reports

Time Latitude Longitude Heading Altitude Ground
Speed
25-Aug-18 18:10 43.567247 -116.220643 25 2841ft 0kts
25-Aug-18 18:11 43.567247 -116.220643 25 2841ft 0kts
25-Aug-18 18:12 43.567247 -116.220643 25 2841ft 0kts
25-Aug-18 18:13 43.567247 -116.220643 25 2841ft 0kts
25-Aug-18 18:14 43.567247 -116.220643 25 2841ft 0kts
25-Aug-18 18:15 43.567247 -116.220643 25 2841ft 0kts
25-Aug-18 18:16 43.567247 -116.220643 25 2841ft 0kts
25-Aug-18 18:17 43.567247 -116.220643 25 2841ft 0kts
25-Aug-18 18:18 43.567247 -116.220643 25 2841ft 0kts
25-Aug-18 18:19 43.567247 -116.220643 25 2841ft 0kts
25-Aug-18 18:20 43.567247 -116.220643 25 2841ft 0kts
25-Aug-18 18:21 43.567247 -116.220643 25 2841ft 0kts
25-Aug-18 18:22 43.567247 -116.220643 25 2841ft 0kts
25-Aug-18 18:23 43.567247 -116.220643 25 2841ft 0kts
25-Aug-18 18:24 43.567247 -116.220643 25 2841ft 0kts
25-Aug-18 18:25 43.567247 -116.220643 25 2841ft 0kts
25-Aug-18 18:26 43.567247 -116.220643 25 2841ft 0kts
25-Aug-18 18:27 43.567247 -116.220643 25 2841ft 0kts
25-Aug-18 18:28 43.567247 -116.220643 25 2841ft 0kts
25-Aug-18 18:29 43.567247 -116.220643 25 2841ft 0kts
25-Aug-18 18:30 43.567247 -116.220643 25 2841ft 0kts
25-Aug-18 18:31 43.567247 -116.220643 25 2841ft 0kts
25-Aug-18 18:32 43.567247 -116.220643 25 2841ft 0kts
25-Aug-18 18:33 43.567247 -116.220643 25 2841ft 0kts
25-Aug-18 18:34 43.567177 -116.220689 25 2841ft 0kts
25-Aug-18 18:35 43.566824 -116.220393 283 2841ft 2kts
25-Aug-18 18:36 43.566892 -116.221163 282 2841ft 0kts
25-Aug-18 18:37 43.566893 -116.221603 233 2841ft 7kts
25-Aug-18 18:38 43.565419 -116.219055 114 2841ft 7kts
25-Aug-18 18:39 43.563461 -116.213246 114 2841ft 25kts
25-Aug-18 18:40 43.561012 -116.206020 114 2841ft 15kts
25-Aug-18 18:41 43.559414 -116.202719 206 2841ft 0kts
25-Aug-18 18:42 43.559414 -116.202719 206 2841ft 0kts
25-Aug-18 18:43 43.559371 -116.202748 206 2841ft 0kts
25-Aug-18 18:44 43.563113 -116.216338 294 2842ft 123kts
25-Aug-18 18:45 43.579870 -116.270308 294 4616ft 161kts
25-Aug-18 18:46 43.599954 -116.328976 294 6628ft 168kts
25-Aug-18 18:47 43.622345 -116.394216 290 8030ft 203kts
25-Aug-18 18:48 43.644970 -116.467967 290 9848ft 210kts
25-Aug-18 18:49 43.669193 -116.542030 289 11946ft 212kts
25-Aug-18 18:50 43.693781 -116.617087 288 13976ft 216kts
25-Aug-18 18:51 43.718621 -116.693425 288 15716ft 220kts
25-Aug-18 18:52 43.743896 -116.771037 287 17132ft 223kts
25-Aug-18 18:53 43.769582 -116.850144 286 18370ft 226kts
25-Aug-18 18:54 43.795326 -116.930410 287 19591ft 229kts
25-Aug-18 18:55 43.821463 -117.011597 288 20676ft 232kts
25-Aug-18 18:56 43.847974 -117.093835 288 21656ft 235kts
25-Aug-18 18:57 43.874697 -117.176853 288 22410ft 236kts
25-Aug-18 18:58 43.901542 -117.260989 288 23216ft 238kts
25-Aug-18 18:59 43.928526 -117.345599 288 23848ft 243kts
25-Aug-18 19:00 43.956868 -117.435022 289 23931ft 263kts
25-Aug-18 19:01 43.987258 -117.530771 289 23935ft 277kts
25-Aug-18 19:02 44.018690 -117.630293 290 23947ft 286kts
25-Aug-18 19:03 44.051001 -117.733006 290 23970ft 292kts
25-Aug-18 19:04 44.083559 -117.836883 290 23992ft 294kts
25-Aug-18 19:05 44.116148 -117.941386 290 24011ft 296kts
25-Aug-18 19:06 44.148848 -118.046636 290 24020ft 297kts
25-Aug-18 19:07 44.181563 -118.152437 290 24028ft 298kts
25-Aug-18 19:08 44.213314 -118.255532 290 24034ft 300kts
25-Aug-18 19:09 44.246177 -118.362729 290 24041ft 301kts
25-Aug-18 19:10 44.278657 -118.469041 290 24048ft 299kts
25-Aug-18 19:11 44.310956 -118.575092 290 24054ft 298kts
25-Aug-18 19:12 44.343390 -118.682396 290 24057ft 300kts
25-Aug-18 19:13 44.375906 -118.789969 290 24060ft 302kts
25-Aug-18 19:14 44.408526 -118.898609 290 24062ft 303kts
25-Aug-18 19:15 44.441039 -119.007383 290 24063ft 303kts
25-Aug-18 19:16 44.473543 -119.116474 290 24063ft 304kts
25-Aug-18 19:17 44.505972 -119.225806 290 24061ft 304kts
25-Aug-18 19:18 44.538381 -119.335485 290 24059ft 304kts
25-Aug-18 19:19 44.570606 -119.445094 290 24058ft 304kts
25-Aug-18 19:20 44.602760 -119.555014 290 24055ft 304kts
25-Aug-18 19:21 44.634862 -119.664998 290 24050ft 304kts
25-Aug-18 19:22 44.664500 -119.776410 286 24048ft 304kts
25-Aug-18 19:23 44.689652 -119.889743 286 24048ft 304kts
25-Aug-18 19:24 44.715629 -120.002519 286 24047ft 304kts
25-Aug-18 19:25 44.737016 -120.097367 287 24046ft 304kts
25-Aug-18 19:26 44.766930 -120.228995 287 24046ft 303kts
25-Aug-18 19:27 44.788250 -120.323380 287 24046ft 303kts
25-Aug-18 19:28 44.817926 -120.455444 287 24046ft 303kts
25-Aug-18 19:29 44.838788 -120.548830 288 23049ft 296kts
25-Aug-18 19:30 44.863057 -120.657836 288 21255ft 290kts
25-Aug-18 19:31 44.890841 -120.783280 288 19149ft 284kts
25-Aug-18 19:32 44.909592 -120.868562 288 18008ft 264kts
25-Aug-18 19:33 44.930664 -120.964547 288 16943ft 253kts
25-Aug-18 19:34 44.951584 -121.059971 288 16048ft 257kts
25-Aug-18 19:35 44.972695 -121.156976 288 15150ft 260kts
25-Aug-18 19:36 44.994417 -121.257322 287 14287ft 276kts
25-Aug-18 19:37 45.016533 -121.360422 287 14121ft 269kts
25-Aug-18 19:38 45.037910 -121.460282 287 13371ft 265kts
25-Aug-18 19:39 45.058873 -121.558639 287 12294ft 257kts
25-Aug-18 19:40 45.078154 -121.649564 286 12096ft 228kts
25-Aug-18 19:41 45.105063 -121.725552 307 11967ft 209kts
25-Aug-18 19:42 45.131914 -121.794351 280 11956ft 195kts
25-Aug-18 19:43 45.144018 -121.867444 284 11962ft 183kts
25-Aug-18 19:44 45.157459 -121.944327 285 11964ft 201kts
25-Aug-18 19:45 45.169995 -122.017205 285 10557ft 173kts
25-Aug-18 19:46 45.181666 -122.084862 286 8806ft 200kts
25-Aug-18 19:47 45.220567 -122.147942 321 7131ft 234kts
25-Aug-18 19:48 45.268263 -122.200923 321 6475ft 215kts
25-Aug-18 19:49 45.311584 -122.249709 320 5987ft 179kts
25-Aug-18 19:50 45.348684 -122.290844 320 6014ft 177kts
25-Aug-18 19:51 45.399310 -122.313453 346 5196ft 195kts
25-Aug-18 19:52 45.447016 -122.328926 335 4004ft 154kts
25-Aug-18 19:53 45.478631 -122.362539 316 2990ft 140kts
25-Aug-18 19:54 45.508690 -122.409913 306 2746ft 170kts
25-Aug-18 19:55 45.533821 -122.464075 300 1856ft 136kts
25-Aug-18 19:56 45.552299 -122.512226 301 1139ft 139kts
25-Aug-18 19:57 45.570366 -122.558293 300 481ft 127kts
25-Aug-18 19:58 45.584702 -122.594553 296 38ft 36kts
25-Aug-18 19:59 45.586798 -122.597790 27 38ft 3kts
25-Aug-18 20:00 45.588379 -122.597306 28 38ft 6kts
25-Aug-18 20:01 45.588820 -122.596929 31 37ft 0kts
25-Aug-18 20:02 45.588820 -122.596929 31 37ft 0kts
25-Aug-18 20:03 45.588820 -122.596929 31 37ft 0kts
25-Aug-18 20:04 45.588820 -122.596929 31 37ft 0kts
25-Aug-18 20:05 45.588820 -122.596929 31 37ft 0kts

Navigation Log

Ident Type
Flight plan parsing failed, navigation log unavailable